Etusivu
METAR-TAF:

METAR-TAF

Lentoasemat :

Municipal_Airport

Cherokee, Iowa, Yhdysvallat

Leveyspiiri: 42-43-54N, Pituuspiiri: 095-33-21W, korkeus merenpinnasta: 374 m

Tämänhetkinen sää

Tämä raportti tehtiin 11 minuuttia sitten, kello 12.55 UTC
Tuuli 5 kn etelästä
Lämpötila 15°C
Kosteus 100%
Ilmanpaine 1019 hPa
Näkyvyys: 6.4 km
Hajanaisia pilviä 2700 ft:n korkeudessa
Hajonneita pilviä 4200 ft:n korkeudessa
Pilvistä 6000 ft:n korkeudessa
heikkoa sadetta

METAR: KCKP 051255Z AUTO 19005KT 4SM -RA SCT027 BKN042 OVC060 15/15 A3009 RMK AO2 P0002 T01530153

Aika: 08:06 (13:06 UTC)


TAF: puuttuu

Säähavainnot ja -ennusteet yli 4000 lentoasemalta (METAR- ja TAF-raportit).

Käytössä olevat sääasemat on merkitty karttaan keltaisilla ja punaisilla pisteillä.

Aseta hiiri pisteen päälle nähdäksesi sääaseman nimen.

Klikkaa sitten nähdäksesi säähavainnot ja -ennusteet.

Kartan vaihtaminen: klikkaa mustalla rastilla varustettuja vihreitä pisteitä, niin voit zoomata sisään; viivalla varustettua vihreää pistettä, niin voit zoomata ulos tai vihreitä nuolia, niin pääset viereisille kartoille.


METAR-TAF: